createdAt,value
2023-05-22T00:01:09.296Z,7.60
2023-05-22T00:03:38.734Z,7.38
2023-05-22T00:06:10.104Z,7.03
2023-05-22T00:08:39.403Z,7.32
2023-05-22T00:11:08.500Z,7.28
2023-05-22T00:13:37.628Z,7.47
2023-05-22T00:16:08.758Z,7.28
2023-05-22T00:18:38.149Z,7.28
2023-05-22T00:21:07.344Z,7.38
2023-05-22T00:23:36.452Z,7.43
2023-05-22T00:26:05.556Z,7.45
2023-05-22T00:28:34.644Z,7.85
2023-05-22T00:31:03.852Z,7.28
2023-05-22T00:33:34.314Z,6.90
2023-05-22T00:36:03.990Z,7.30
2023-05-22T00:38:34.201Z,7.97
2023-05-22T00:41:04.179Z,7.25
2023-05-22T00:43:33.917Z,7.22
2023-05-22T00:46:03.115Z,6.95
2023-05-22T00:48:33.581Z,8.00
2023-05-22T00:51:03.376Z,7.30
2023-05-22T00:53:32.474Z,7.32
2023-05-22T00:56:01.988Z,7.47
2023-05-22T00:58:31.934Z,7.40
2023-05-22T01:01:01.102Z,7.25
2023-05-22T01:03:32.178Z,7.20
2023-05-22T01:06:03.048Z,7.73
2023-05-22T01:08:32.242Z,7.37
2023-05-22T01:11:08.211Z,7.10
2023-05-22T01:13:47.464Z,6.93
2023-05-22T01:16:26.082Z,7.20
2023-05-22T01:19:12.678Z,7.40
2023-05-22T01:21:48.809Z,6.95
2023-05-22T01:24:54.111Z,6.75
2023-05-22T01:27:55.393Z,7.03
2023-05-22T01:30:51.122Z,7.03
2023-05-22T01:33:26.010Z,6.78
2023-05-22T01:35:58.384Z,7.55
2023-05-22T01:38:27.822Z,7.03
2023-05-22T01:40:57.722Z,7.63
2023-05-22T01:43:28.916Z,7.43
2023-05-22T01:45:59.454Z,6.67
2023-05-22T01:48:29.542Z,6.45
2023-05-22T01:51:04.005Z,7.03
2023-05-22T01:53:38.887Z,7.22
2023-05-22T01:56:14.263Z,7.50
2023-05-22T01:58:49.701Z,6.97
2023-05-22T02:01:23.503Z,7.47
2023-05-22T02:03:57.461Z,6.53
2023-05-22T02:06:29.752Z,6.88
2023-05-22T02:09:00.000Z,7.18
2023-05-22T02:11:30.345Z,7.47
2023-05-22T02:13:59.839Z,7.03
2023-05-22T02:16:31.975Z,7.17
2023-05-22T02:19:06.337Z,7.53
2023-05-22T02:21:36.326Z,7.35
2023-05-22T02:24:05.986Z,6.80
2023-05-22T02:26:35.130Z,7.13
2023-05-22T02:29:04.610Z,7.45
2023-05-22T02:31:35.261Z,7.40
2023-05-22T02:34:06.565Z,7.32
2023-05-22T02:36:37.268Z,7.13
2023-05-22T02:39:06.415Z,6.83
2023-05-22T02:41:35.642Z,6.93
2023-05-22T02:44:05.499Z,6.20
2023-05-22T02:46:36.314Z,7.10
2023-05-22T02:49:05.845Z,6.50
2023-05-22T02:51:34.977Z,7.00
2023-05-22T02:54:04.311Z,6.43
2023-05-22T02:56:33.366Z,6.93
2023-05-22T02:59:03.121Z,5.67
2023-05-22T03:01:32.461Z,6.93
2023-05-22T03:04:03.108Z,6.80
2023-05-22T03:06:32.302Z,6.20
2023-05-22T03:09:03.886Z,6.60
2023-05-22T03:11:33.005Z,6.65
2023-05-22T03:14:02.101Z,6.70
2023-05-22T03:16:32.957Z,6.30
2023-05-22T03:19:11.636Z,6.77
2023-05-22T03:21:41.478Z,6.63
2023-05-22T03:24:11.217Z,6.80
2023-05-22T03:26:40.554Z,6.60
2023-05-22T03:29:12.239Z,5.80
2023-05-22T03:31:43.613Z,6.30
2023-05-22T03:34:17.490Z,5.70
2023-05-22T03:36:49.268Z,6.03
2023-05-22T03:39:19.376Z,5.87
2023-05-22T03:41:57.852Z,6.27
2023-05-22T03:44:27.795Z,6.27
2023-05-22T03:46:57.298Z,5.63
2023-05-22T03:49:27.747Z,6.30
2023-05-22T03:51:56.866Z,6.17
2023-05-22T03:54:25.934Z,6.20
2023-05-22T03:56:55.000Z,6.10
2023-05-22T03:59:24.223Z,5.83
2023-05-22T04:01:53.303Z,6.20
2023-05-22T04:04:22.700Z,5.63
2023-05-22T04:06:54.539Z,6.35
2023-05-22T04:09:23.650Z,6.20
2023-05-22T04:11:53.645Z,6.55
2023-05-22T04:14:22.766Z,6.80
2023-05-22T04:16:51.847Z,5.70
2023-05-22T04:19:21.016Z,5.35
2023-05-22T04:21:51.076Z,5.93
2023-05-22T04:24:23.091Z,5.97
2023-05-22T04:26:52.242Z,5.63
2023-05-22T04:29:22.331Z,6.13
2023-05-22T04:31:54.337Z,5.82
2023-05-22T04:34:24.053Z,6.10
2023-05-22T04:36:53.071Z,5.78
2023-05-22T04:39:26.171Z,5.60
2023-05-22T04:41:55.355Z,5.80
2023-05-22T04:44:24.475Z,5.75
2023-05-22T04:46:57.250Z,5.28
2023-05-22T04:49:26.903Z,5.60
2023-05-22T04:51:57.287Z,5.38
2023-05-22T04:54:27.742Z,5.00
2023-05-22T04:56:56.838Z,5.03
2023-05-22T04:59:26.576Z,5.15
2023-05-22T05:01:55.713Z,4.75
2023-05-22T05:04:24.760Z,5.25
2023-05-22T05:06:55.119Z,4.72
2023-05-22T05:09:24.187Z,5.22
2023-05-22T05:11:54.688Z,4.40
2023-05-22T05:14:23.803Z,5.05
2023-05-22T05:16:53.574Z,4.63
2023-05-22T05:19:22.972Z,4.22
2023-05-22T05:21:52.565Z,4.57
2023-05-22T05:24:23.448Z,3.92
2023-05-22T05:26:53.972Z,4.50
2023-05-22T05:29:23.058Z,4.50
2023-05-22T05:32:00.833Z,4.28
2023-05-22T05:34:48.701Z,4.50
2023-05-22T05:37:36.673Z,3.80
2023-05-22T05:40:09.755Z,3.85
2023-05-22T05:42:44.182Z,3.83
2023-05-22T05:45:15.200Z,3.95
2023-05-22T05:47:45.874Z,4.40
2023-05-22T05:50:16.015Z,3.90
2023-05-22T05:52:45.462Z,3.60
2023-05-22T05:55:18.340Z,4.10
2023-05-22T05:57:49.846Z,4.00
2023-05-22T06:00:26.307Z,3.60
2023-05-22T06:02:56.572Z,3.30
2023-05-22T06:05:35.924Z,3.33
2023-05-22T06:08:16.742Z,3.42
2023-05-22T06:10:46.550Z,3.63
2023-05-22T06:13:19.829Z,2.80
2023-05-22T06:15:48.932Z,3.08
2023-05-22T06:18:18.480Z,3.25
2023-05-22T06:20:47.937Z,2.88
2023-05-22T06:23:17.324Z,2.78
2023-05-22T06:25:46.527Z,3.30
2023-05-22T06:28:16.037Z,2.67
2023-05-22T06:30:47.034Z,3.33
2023-05-22T06:33:20.185Z,2.47
2023-05-22T06:35:49.406Z,2.95
2023-05-22T06:38:19.164Z,3.00
2023-05-22T06:40:48.444Z,2.60
2023-05-22T06:43:24.236Z,2.78
2023-05-22T06:45:59.215Z,2.70
2023-05-22T06:48:41.935Z,2.70
2023-05-22T06:51:16.266Z,2.42
2023-05-22T06:53:47.695Z,2.53
2023-05-22T06:56:22.740Z,2.90
2023-05-22T06:58:56.229Z,2.75
2023-05-22T07:01:34.103Z,2.33
2023-05-22T07:04:11.943Z,2.53
2023-05-22T07:06:58.321Z,2.13
2023-05-22T07:09:27.594Z,2.10
2023-05-22T07:11:56.654Z,2.47
2023-05-22T07:14:26.514Z,2.83
2023-05-22T07:16:57.324Z,2.80
2023-05-22T07:19:30.915Z,2.25
2023-05-22T07:22:03.628Z,2.30
2023-05-22T07:24:34.872Z,2.47
2023-05-22T07:27:05.552Z,2.17
2023-05-22T07:29:36.146Z,2.28
2023-05-22T07:32:09.566Z,2.15
2023-05-22T07:34:39.327Z,2.08
2023-05-22T07:37:12.887Z,2.20
2023-05-22T07:39:42.917Z,1.63
2023-05-22T07:42:14.601Z,2.05
2023-05-22T07:44:50.484Z,2.08
2023-05-22T07:47:22.678Z,1.60
2023-05-22T07:49:52.697Z,2.03
2023-05-22T07:52:23.765Z,1.90
2023-05-22T07:54:53.722Z,1.80
2023-05-22T07:57:23.199Z,1.67
2023-05-22T07:59:53.524Z,1.83
2023-05-22T08:02:24.304Z,1.60
2023-05-22T08:04:53.617Z,2.10
2023-05-22T08:07:22.753Z,1.70
2023-05-22T08:09:51.859Z,1.73
2023-05-22T08:12:20.986Z,1.60
2023-05-22T08:14:50.206Z,2.00
2023-05-22T08:17:19.383Z,1.45
2023-05-22T08:19:50.022Z,1.95
2023-05-22T08:22:19.212Z,1.80
2023-05-22T08:24:48.259Z,1.80
2023-05-22T08:27:17.456Z,1.70
2023-05-22T08:29:46.580Z,2.00
2023-05-22T08:32:15.682Z,1.95
2023-05-22T08:34:46.091Z,1.85
2023-05-22T08:37:16.650Z,2.03
2023-05-22T08:39:45.706Z,1.75
2023-05-22T08:42:15.176Z,1.70
2023-05-22T08:44:44.276Z,1.73
2023-05-22T08:47:15.120Z,2.13
2023-05-22T08:49:44.926Z,1.70
2023-05-22T08:52:23.485Z,1.75
2023-05-22T08:54:56.527Z,1.70
2023-05-22T08:57:26.965Z,1.95
2023-05-22T08:59:56.531Z,1.73
2023-05-22T09:02:26.382Z,1.60
2023-05-22T09:04:57.228Z,1.90
2023-05-22T09:07:27.912Z,1.92
2023-05-22T09:09:57.115Z,1.73
2023-05-22T09:12:27.630Z,1.48
2023-05-22T09:14:58.661Z,1.48
2023-05-22T09:17:28.334Z,1.70
2023-05-22T09:20:01.087Z,1.40
2023-05-22T09:22:38.958Z,1.80
2023-05-22T09:25:08.823Z,1.85
2023-05-22T09:27:37.935Z,2.15
2023-05-22T09:30:11.107Z,1.67
2023-05-22T09:32:40.268Z,1.40
2023-05-22T09:35:10.267Z,1.90
2023-05-22T09:37:41.470Z,1.58
2023-05-22T09:40:14.072Z,1.65
2023-05-22T09:42:46.597Z,1.55
2023-05-22T09:45:15.734Z,1.90
2023-05-22T09:47:50.458Z,1.70
2023-05-22T09:50:19.751Z,1.75
2023-05-22T09:52:51.932Z,1.35
2023-05-22T09:57:55.336Z,1.55
2023-05-22T10:00:25.925Z,1.60
2023-05-22T10:03:03.357Z,1.50
2023-05-22T10:05:33.970Z,1.50
2023-05-22T10:08:11.889Z,1.48
2023-05-22T10:10:44.814Z,1.58
2023-05-22T10:13:14.282Z,1.65
2023-05-22T10:15:43.940Z,1.77
2023-05-22T10:18:13.592Z,1.35
2023-05-22T10:20:42.940Z,1.70
2023-05-22T10:23:15.223Z,1.70
2023-05-22T10:25:45.102Z,1.52
2023-05-22T10:28:22.386Z,1.65
2023-05-22T10:30:59.424Z,1.70
2023-05-22T10:33:34.875Z,1.80
2023-05-22T10:36:08.526Z,1.52
2023-05-22T10:38:53.395Z,1.85
2023-05-22T10:41:23.473Z,1.50
2023-05-22T10:43:53.090Z,1.58
2023-05-22T10:46:22.248Z,1.60
2023-05-22T10:48:54.095Z,1.40
2023-05-22T10:51:24.335Z,1.60
2023-05-22T10:53:59.605Z,1.30
2023-05-22T10:56:36.212Z,1.90
2023-05-22T10:59:08.009Z,1.75
2023-05-22T11:01:38.153Z,1.90
2023-05-22T11:04:19.585Z,1.73
2023-05-22T11:07:05.386Z,1.45
2023-05-22T11:09:44.111Z,1.70
2023-05-22T11:12:25.006Z,1.65
2023-05-22T11:14:56.445Z,1.75
2023-05-22T11:17:27.877Z,1.63
2023-05-22T11:20:02.477Z,1.25
2023-05-22T11:22:37.186Z,2.17
2023-05-22T11:25:10.690Z,1.50
2023-05-22T11:27:41.959Z,1.48
2023-05-22T11:30:12.623Z,1.23
2023-05-22T11:32:44.731Z,1.77
2023-05-22T11:35:17.202Z,1.70
2023-05-22T11:37:46.931Z,1.60
2023-05-22T11:40:18.971Z,1.70
2023-05-22T11:42:48.300Z,1.77
2023-05-22T11:45:17.840Z,1.88
2023-05-22T11:47:47.162Z,1.90
2023-05-22T11:50:22.513Z,1.58
2023-05-22T11:52:56.380Z,2.38
2023-05-22T11:55:27.011Z,1.73
2023-05-22T11:57:57.309Z,1.92
2023-05-22T12:00:26.732Z,1.60
2023-05-22T12:02:56.636Z,1.80
2023-05-22T12:05:25.857Z,1.60
2023-05-22T12:07:55.256Z,1.50
2023-05-22T12:10:26.237Z,2.22
2023-05-22T12:12:56.466Z,1.60
2023-05-22T12:15:26.367Z,1.60
2023-05-22T12:17:57.122Z,1.60
2023-05-22T12:20:31.357Z,1.80
2023-05-22T12:23:00.622Z,1.50
2023-05-22T12:25:38.069Z,1.58
2023-05-22T12:28:08.320Z,1.80
2023-05-22T12:30:43.758Z,1.63
2023-05-22T12:33:15.972Z,1.70
2023-05-22T12:35:45.107Z,1.80
2023-05-22T12:38:14.501Z,1.90
2023-05-22T12:40:45.160Z,1.92
2023-05-22T12:43:14.904Z,2.10
2023-05-22T12:45:44.046Z,1.70
2023-05-22T12:48:13.206Z,1.58
2023-05-22T12:50:42.656Z,1.70
2023-05-22T12:53:11.985Z,1.70
2023-05-22T12:55:41.637Z,1.75
2023-05-22T12:58:12.301Z,1.63
2023-05-22T13:00:41.712Z,2.20
2023-05-22T13:03:12.399Z,1.67
2023-05-22T13:05:41.834Z,2.25
2023-05-22T13:08:11.273Z,2.00
2023-05-22T13:10:40.339Z,1.65
2023-05-22T13:13:10.810Z,1.80
2023-05-22T13:15:39.951Z,1.25
2023-05-22T13:18:09.240Z,1.40
2023-05-22T13:20:38.641Z,2.00
2023-05-22T13:23:07.843Z,1.65
2023-05-22T13:25:36.969Z,1.80
2023-05-22T13:28:06.055Z,1.60
2023-05-22T13:30:36.702Z,1.60
2023-05-22T13:33:06.031Z,1.60
2023-05-22T13:35:35.389Z,2.00
2023-05-22T13:38:04.595Z,1.70
2023-05-22T13:40:33.665Z,1.45
2023-05-22T13:43:03.097Z,1.90
2023-05-22T13:45:32.266Z,1.95
2023-05-22T13:48:02.767Z,2.05
2023-05-22T13:50:32.033Z,1.85
2023-05-22T13:53:01.107Z,1.85
2023-05-22T13:55:30.197Z,1.80
2023-05-22T13:57:59.275Z,1.48
2023-05-22T14:00:28.381Z,2.03
2023-05-22T14:02:57.886Z,1.60
2023-05-22T14:05:28.426Z,1.60
2023-05-22T14:07:57.553Z,1.55
2023-05-22T14:10:26.642Z,1.95
2023-05-22T14:12:55.941Z,1.50
2023-05-22T14:15:25.185Z,1.58
2023-05-22T14:17:54.276Z,2.03
2023-05-22T14:20:23.391Z,2.25
2023-05-22T14:22:57.659Z,2.10
2023-05-22T14:25:27.589Z,2.10
2023-05-22T14:27:56.748Z,1.65
2023-05-22T14:30:25.943Z,1.83
2023-05-22T14:32:55.112Z,1.65
2023-05-22T14:35:24.350Z,2.15
2023-05-22T14:37:54.794Z,1.77
2023-05-22T14:40:23.872Z,1.73
2023-05-22T14:42:54.367Z,1.85
2023-05-22T14:45:23.834Z,1.73
2023-05-22T14:47:53.166Z,2.22
2023-05-22T14:50:22.395Z,2.00
2023-05-22T14:52:51.614Z,2.05
2023-05-22T14:55:22.704Z,2.13
2023-05-22T14:57:51.888Z,2.13
2023-05-22T15:00:21.454Z,1.65
2023-05-22T15:02:50.601Z,2.05
2023-05-22T15:05:19.762Z,1.90
2023-05-22T15:07:51.187Z,2.08
2023-05-22T15:10:22.027Z,1.73
2023-05-22T15:12:51.123Z,2.08
2023-05-22T15:15:20.571Z,1.65
2023-05-22T15:17:49.777Z,1.77
2023-05-22T15:20:19.089Z,2.00
2023-05-22T15:22:48.223Z,1.80
2023-05-22T15:25:17.310Z,1.90
2023-05-22T15:27:47.735Z,2.13
2023-05-22T15:30:17.285Z,2.03
2023-05-22T15:32:46.654Z,1.80
2023-05-22T15:35:16.015Z,2.22
2023-05-22T15:37:45.254Z,1.90
2023-05-22T15:40:17.220Z,2.22
2023-05-22T15:42:47.722Z,2.60
2023-05-22T15:45:16.924Z,1.85
2023-05-22T15:47:46.873Z,2.35
2023-05-22T15:50:16.184Z,1.88
2023-05-22T15:52:45.647Z,2.17
2023-05-22T15:55:14.743Z,2.35
2023-05-22T15:57:43.822Z,2.05
2023-05-22T16:00:18.377Z,2.53
2023-05-22T16:02:47.800Z,2.22
2023-05-22T16:05:17.346Z,2.55
2023-05-22T16:07:46.830Z,3.30
2023-05-22T16:10:15.923Z,2.90
2023-05-22T16:12:45.079Z,2.75
2023-05-22T16:15:15.696Z,2.90
2023-05-22T16:17:45.676Z,2.92
2023-05-22T16:20:14.865Z,2.75
2023-05-22T16:22:48.437Z,2.92
2023-05-22T16:25:18.693Z,3.20
2023-05-22T16:27:47.783Z,3.40
2023-05-22T16:30:18.825Z,4.10
2023-05-22T16:32:48.804Z,3.40
2023-05-22T16:35:19.514Z,3.92
2023-05-22T16:37:48.680Z,3.42
2023-05-22T16:40:18.634Z,3.65
2023-05-22T16:42:47.777Z,4.00
2023-05-22T16:45:18.399Z,3.45
2023-05-22T16:47:47.465Z,3.70
2023-05-22T16:50:16.731Z,3.90
2023-05-22T16:52:45.835Z,3.92
2023-05-22T16:55:14.973Z,4.00
2023-05-22T16:57:44.121Z,4.07
2023-05-22T17:00:13.985Z,4.22
2023-05-22T17:02:44.623Z,4.20
2023-05-22T17:05:13.821Z,4.28
2023-05-22T17:07:42.899Z,4.40
2023-05-22T17:10:12.754Z,4.28
2023-05-22T17:12:41.889Z,4.32
2023-05-22T17:15:11.905Z,4.57
2023-05-22T17:17:41.071Z,4.78
2023-05-22T17:20:12.701Z,5.35
2023-05-22T17:22:42.089Z,5.25
2023-05-22T17:25:11.731Z,5.07
2023-05-22T17:27:40.979Z,20.65
2023-05-22T17:30:11.067Z,5.40
2023-05-22T17:32:40.256Z,7.35
2023-05-22T17:35:10.934Z,4.82
2023-05-22T17:37:40.015Z,5.20
2023-05-22T17:40:10.768Z,5.18
2023-05-22T17:42:39.942Z,5.25
2023-05-22T17:45:10.303Z,5.35
2023-05-22T17:47:39.517Z,5.35
2023-05-22T17:50:11.336Z,5.05
2023-05-22T17:52:41.130Z,5.40
2023-05-22T17:55:11.136Z,4.93
2023-05-22T17:57:40.531Z,5.90
2023-05-22T18:00:10.933Z,5.40
2023-05-22T18:02:42.776Z,7.15
2023-05-22T18:05:14.020Z,5.68
2023-05-22T18:07:43.197Z,5.97
2023-05-22T18:10:12.703Z,5.85
2023-05-22T18:12:42.048Z,5.45
2023-05-22T18:15:12.428Z,5.35
2023-05-22T18:17:42.213Z,5.57
2023-05-22T18:20:13.941Z,5.57
2023-05-22T18:22:43.584Z,5.10
2023-05-22T18:25:14.456Z,6.00
2023-05-22T18:27:43.641Z,5.90
2023-05-22T18:30:15.551Z,6.03
2023-05-22T18:32:44.742Z,6.38
2023-05-22T18:35:15.353Z,5.88
2023-05-22T18:37:44.531Z,6.15
2023-05-22T18:40:15.233Z,6.20
2023-05-22T18:42:44.582Z,5.95
2023-05-22T18:45:14.464Z,5.85
2023-05-22T18:47:43.711Z,5.75
2023-05-22T18:50:18.235Z,6.25
2023-05-22T18:52:47.383Z,6.55
2023-05-22T18:55:16.647Z,5.95
2023-05-22T18:57:45.873Z,6.07
2023-05-22T19:00:15.451Z,5.75
2023-05-22T19:02:44.632Z,6.00
2023-05-22T19:05:15.645Z,5.43
2023-05-22T19:07:44.856Z,5.60
2023-05-22T19:10:14.162Z,6.78
2023-05-22T19:12:45.356Z,6.97
2023-05-22T19:15:17.041Z,6.18
2023-05-22T19:17:46.242Z,6.20
2023-05-22T19:20:17.065Z,6.72
2023-05-22T19:22:46.326Z,6.80
2023-05-22T19:25:15.636Z,6.40
2023-05-22T19:27:44.995Z,6.28
2023-05-22T19:30:18.788Z,6.55
2023-05-22T19:32:50.277Z,6.22
2023-05-22T19:35:21.127Z,6.53
2023-05-22T19:37:50.899Z,6.25
2023-05-22T19:40:20.040Z,6.88
2023-05-22T19:42:49.155Z,6.85
2023-05-22T19:45:18.472Z,6.50
2023-05-22T19:47:47.610Z,6.43
2023-05-22T19:50:17.415Z,7.00
2023-05-22T19:52:48.249Z,7.70
2023-05-22T19:55:17.419Z,7.20
2023-05-22T19:57:46.753Z,7.45
2023-05-22T20:00:16.734Z,7.95
2023-05-22T20:02:46.195Z,7.70
2023-05-22T20:05:15.288Z,7.32
2023-05-22T20:07:44.667Z,6.97
2023-05-22T20:10:16.094Z,7.55
2023-05-22T20:12:46.004Z,7.00
2023-05-22T20:15:15.988Z,7.75
2023-05-22T20:17:47.701Z,7.57
2023-05-22T20:20:17.110Z,7.50
2023-05-22T20:22:46.918Z,8.00
2023-05-22T20:25:17.389Z,7.72
2023-05-22T20:27:46.529Z,8.05
2023-05-22T20:30:15.910Z,8.15
2023-05-22T20:32:46.418Z,8.63
2023-05-22T20:35:18.565Z,8.90
2023-05-22T20:37:48.048Z,9.00
2023-05-22T20:40:18.543Z,8.52
2023-05-22T20:42:47.813Z,8.68
2023-05-22T20:45:17.377Z,7.90
2023-05-22T20:47:46.708Z,9.18
2023-05-22T20:50:16.628Z,8.60
2023-05-22T20:52:47.136Z,9.07
2023-05-22T20:55:17.668Z,8.63
2023-05-22T20:57:46.892Z,7.70
2023-05-22T21:00:16.494Z,7.90
2023-05-22T21:02:45.801Z,9.43
2023-05-22T21:05:14.939Z,9.73
2023-05-22T21:07:44.122Z,9.07
2023-05-22T21:10:13.624Z,9.30
2023-05-22T21:12:44.200Z,9.40
2023-05-22T21:15:13.537Z,9.07
2023-05-22T21:17:42.934Z,9.30
2023-05-22T21:20:12.541Z,8.57
2023-05-22T21:22:41.596Z,8.38
2023-05-22T21:25:11.450Z,9.35
2023-05-22T21:27:40.912Z,9.02
2023-05-22T21:30:16.110Z,9.98
2023-05-22T21:32:45.324Z,8.80
2023-05-22T21:35:17.354Z,9.02
2023-05-22T21:37:46.472Z,9.52
2023-05-22T21:40:16.222Z,9.35
2023-05-22T21:42:47.386Z,9.68
2023-05-22T21:45:18.231Z,9.50
2023-05-22T21:47:47.367Z,9.93
2023-05-22T21:50:16.538Z,10.15
2023-05-22T21:52:45.697Z,9.60
2023-05-22T21:55:14.803Z,9.55
2023-05-22T21:57:45.651Z,9.88
2023-05-22T22:00:17.537Z,10.43
2023-05-22T22:02:46.700Z,10.15
2023-05-22T22:05:18.484Z,9.35
2023-05-22T22:07:47.627Z,9.48
2023-05-22T22:10:16.820Z,10.15
2023-05-22T22:12:45.991Z,10.15
2023-05-22T22:15:15.151Z,10.35
2023-05-22T22:17:46.025Z,9.40
2023-05-22T22:20:15.514Z,9.00
2023-05-22T22:22:44.607Z,10.43
2023-05-22T22:25:13.719Z,9.87
2023-05-22T22:27:42.940Z,9.27
2023-05-22T22:30:12.560Z,9.75
2023-05-22T22:32:41.772Z,9.38
2023-05-22T22:35:12.415Z,9.15
2023-05-22T22:37:41.631Z,9.90
2023-05-22T22:40:11.782Z,8.40
2023-05-22T22:42:40.961Z,9.60
2023-05-22T22:45:10.704Z,9.32
2023-05-22T22:47:40.164Z,8.80
2023-05-22T22:50:12.476Z,9.00
2023-05-22T22:52:45.276Z,9.10
2023-05-22T22:55:14.918Z,8.60
2023-05-22T22:57:44.695Z,8.65
2023-05-22T23:00:15.996Z,8.38
2023-05-22T23:02:45.135Z,8.93
2023-05-22T23:05:19.747Z,8.40
2023-05-22T23:07:49.293Z,8.80
2023-05-22T23:10:18.487Z,8.13
2023-05-22T23:12:50.172Z,8.80
2023-05-22T23:15:19.356Z,8.63
2023-05-22T23:17:51.614Z,8.03
2023-05-22T23:20:22.365Z,8.60
2023-05-22T23:22:51.497Z,8.43
2023-05-22T23:25:20.608Z,8.17
2023-05-22T23:27:52.066Z,7.70
2023-05-22T23:30:21.385Z,8.60
2023-05-22T23:32:50.536Z,9.00
2023-05-22T23:35:21.151Z,8.57
2023-05-22T23:37:50.252Z,9.57
2023-05-22T23:40:19.414Z,10.20
2023-05-22T23:42:48.624Z,9.53
2023-05-22T23:45:17.726Z,10.67
2023-05-22T23:47:46.863Z,9.13
2023-05-22T23:50:15.965Z,9.67
2023-05-22T23:52:47.256Z,9.15
2023-05-22T23:55:17.044Z,8.30
2023-05-22T23:57:46.158Z,9.17
